createdAt,value
2023-05-07T00:01:32.297Z,3.83
2023-05-07T00:03:59.704Z,3.83
2023-05-07T00:06:29.948Z,3.80
2023-05-07T00:08:58.812Z,4.03
2023-05-07T00:11:27.007Z,4.53
2023-05-07T00:13:54.656Z,3.93
2023-05-07T00:16:22.380Z,3.63
2023-05-07T00:18:49.946Z,3.93
2023-05-07T00:21:18.890Z,3.67
2023-05-07T00:23:46.195Z,3.90
2023-05-07T00:26:13.642Z,4.67
2023-05-07T00:28:42.702Z,4.30
2023-05-07T00:31:09.849Z,3.50
2023-05-07T00:33:37.590Z,3.53
2023-05-07T00:36:05.408Z,4.10
2023-05-07T00:38:32.558Z,3.93
2023-05-07T00:40:59.775Z,3.87
2023-05-07T00:43:28.538Z,3.90
2023-05-07T00:45:55.878Z,3.47
2023-05-07T00:48:25.219Z,3.70
2023-05-07T00:50:52.600Z,4.20
2023-05-07T00:53:20.287Z,4.07
2023-05-07T00:55:47.655Z,3.70
2023-05-07T00:58:14.918Z,3.63
2023-05-07T01:00:42.842Z,4.10
2023-05-07T01:03:10.424Z,4.03
2023-05-07T01:05:38.266Z,3.70
2023-05-07T01:08:06.340Z,3.83
2023-05-07T01:10:33.905Z,3.90
2023-05-07T01:13:01.708Z,5.20
2023-05-07T01:15:29.355Z,4.00
2023-05-07T01:17:57.957Z,4.30
2023-05-07T01:20:31.968Z,3.60
2023-05-07T01:22:59.536Z,4.00
2023-05-07T01:25:27.092Z,3.90
2023-05-07T01:28:03.891Z,3.80
2023-05-07T01:30:36.393Z,4.00
2023-05-07T01:33:09.896Z,4.20
2023-05-07T01:35:39.715Z,4.33
2023-05-07T01:38:07.835Z,3.97
2023-05-07T01:40:36.130Z,3.57
2023-05-07T01:43:05.005Z,4.13
2023-05-07T01:45:34.242Z,4.37
2023-05-07T01:48:02.529Z,3.97
2023-05-07T01:50:31.636Z,3.93
2023-05-07T01:52:59.358Z,4.27
2023-05-07T01:55:27.040Z,4.03
2023-05-07T01:57:54.285Z,3.90
2023-05-07T02:00:21.798Z,4.33
2023-05-07T02:02:49.199Z,3.70
2023-05-07T02:05:42.283Z,4.20
2023-05-07T02:08:27.598Z,3.70
2023-05-07T02:10:56.218Z,3.57
2023-05-07T02:13:25.373Z,4.30
2023-05-07T02:15:52.947Z,3.80
2023-05-07T02:18:20.241Z,4.03
2023-05-07T02:20:48.034Z,5.50
2023-05-07T02:23:15.553Z,5.30
2023-05-07T02:25:42.910Z,7.70
2023-05-07T02:28:10.553Z,7.50
2023-05-07T02:30:52.946Z,4.77
2023-05-07T02:33:21.266Z,5.90
2023-05-07T02:35:49.140Z,4.33
2023-05-07T02:38:17.212Z,4.00
2023-05-07T02:40:46.373Z,4.40
2023-05-07T02:43:13.645Z,4.20
2023-05-07T02:45:44.782Z,4.20
2023-05-07T02:48:13.145Z,4.13
2023-05-07T02:50:40.569Z,4.57
2023-05-07T02:53:09.859Z,3.83
2023-05-07T02:55:37.182Z,4.50
2023-05-07T02:58:04.541Z,3.40
2023-05-07T03:00:34.659Z,4.30
2023-05-07T03:03:12.403Z,4.60
2023-05-07T03:05:40.698Z,3.90
2023-05-07T03:08:09.309Z,4.00
2023-05-07T03:10:37.501Z,4.37
2023-05-07T03:13:05.759Z,4.87
2023-05-07T03:15:35.802Z,4.57
2023-05-07T03:18:03.478Z,4.43
2023-05-07T03:20:31.397Z,4.20
2023-05-07T03:22:59.274Z,4.53
2023-05-07T03:25:27.022Z,4.63
2023-05-07T03:27:54.381Z,4.00
2023-05-07T03:30:25.708Z,4.47
2023-05-07T03:32:52.930Z,4.43
2023-05-07T03:35:20.903Z,4.83
2023-05-07T03:37:48.386Z,4.27
2023-05-07T03:40:16.000Z,4.63
2023-05-07T03:42:48.210Z,4.00
2023-05-07T03:45:17.404Z,3.53
2023-05-07T03:47:49.820Z,4.30
2023-05-07T03:50:20.130Z,4.20
2023-05-07T03:52:49.823Z,3.80
2023-05-07T03:55:20.086Z,4.43
2023-05-07T03:57:52.979Z,4.20
2023-05-07T04:00:21.936Z,3.77
2023-05-07T04:02:49.436Z,4.30
2023-05-07T04:05:23.646Z,4.20
2023-05-07T04:07:54.446Z,4.20
2023-05-07T04:10:29.129Z,3.90
2023-05-07T04:12:59.063Z,3.93
2023-05-07T04:15:28.023Z,4.67
2023-05-07T04:17:56.361Z,4.50
2023-05-07T04:20:25.147Z,4.27
2023-05-07T04:22:59.134Z,4.10
2023-05-07T04:25:27.610Z,4.30
2023-05-07T04:28:00.990Z,4.00
2023-05-07T04:30:33.810Z,4.17
2023-05-07T04:33:03.584Z,4.53
2023-05-07T04:35:33.171Z,4.37
2023-05-07T04:38:01.707Z,4.33
2023-05-07T04:40:30.915Z,4.57
2023-05-07T04:43:00.066Z,5.30
2023-05-07T04:45:29.602Z,4.43
2023-05-07T04:48:00.413Z,4.43
2023-05-07T04:50:28.624Z,19.90
2023-05-07T04:53:00.393Z,47.60
2023-05-07T04:55:29.805Z,12.87
2023-05-07T04:57:58.238Z,8.20
2023-05-07T05:00:27.226Z,5.33
2023-05-07T05:02:56.335Z,5.90
2023-05-07T05:05:24.367Z,6.50
2023-05-07T05:07:54.545Z,4.90
2023-05-07T05:10:24.472Z,4.40
2023-05-07T05:12:52.574Z,4.10
2023-05-07T05:15:21.115Z,4.40
2023-05-07T05:17:48.600Z,4.40
2023-05-07T05:20:16.621Z,4.70
2023-05-07T05:22:44.475Z,4.73
2023-05-07T05:25:13.820Z,4.93
2023-05-07T05:27:41.568Z,5.17
2023-05-07T05:30:10.277Z,5.00
2023-05-07T05:32:40.132Z,4.73
2023-05-07T05:35:09.048Z,4.70
2023-05-07T05:37:37.057Z,4.73
2023-05-07T05:40:06.957Z,4.80
2023-05-07T05:42:34.981Z,4.93
2023-05-07T05:45:02.795Z,5.03
2023-05-07T05:47:36.391Z,5.43
2023-05-07T05:50:06.002Z,5.27
2023-05-07T05:52:33.293Z,4.90
2023-05-07T05:55:01.019Z,5.00
2023-05-07T05:57:29.023Z,5.10
2023-05-07T05:59:57.186Z,5.10
2023-05-07T06:02:25.705Z,5.60
2023-05-07T06:04:53.732Z,4.87
2023-05-07T06:07:23.502Z,4.40
2023-05-07T06:09:52.396Z,5.30
2023-05-07T06:12:20.634Z,4.53
2023-05-07T06:14:50.577Z,5.10
2023-05-07T06:17:21.016Z,5.53
2023-05-07T06:19:51.836Z,5.40
2023-05-07T06:22:21.432Z,5.50
2023-05-07T06:24:49.333Z,5.97
2023-05-07T06:27:16.720Z,5.53
2023-05-07T06:29:45.294Z,4.63
2023-05-07T06:32:16.578Z,5.93
2023-05-07T06:34:45.289Z,5.40
2023-05-07T06:37:13.418Z,5.37
2023-05-07T06:39:52.732Z,5.67
2023-05-07T06:42:20.349Z,5.20
2023-05-07T06:44:49.512Z,5.90
2023-05-07T06:47:18.518Z,6.00
2023-05-07T06:49:51.025Z,5.70
2023-05-07T06:52:20.674Z,5.60
2023-05-07T06:54:49.938Z,6.10
2023-05-07T06:57:18.998Z,6.03
2023-05-07T06:59:49.268Z,5.60
2023-05-07T07:02:18.196Z,5.90
2023-05-07T07:04:46.217Z,5.70
2023-05-07T07:07:14.304Z,5.20
2023-05-07T07:09:44.503Z,5.50
2023-05-07T07:12:14.540Z,6.10
2023-05-07T07:14:43.510Z,5.93
2023-05-07T07:17:10.819Z,6.30
2023-05-07T07:19:38.601Z,6.17
2023-05-07T07:22:05.859Z,6.60
2023-05-07T07:24:33.779Z,6.57
2023-05-07T07:27:04.499Z,6.57
2023-05-07T07:29:34.565Z,7.10
2023-05-07T07:32:01.936Z,6.50
2023-05-07T07:34:29.614Z,6.23
2023-05-07T07:36:57.264Z,5.83
2023-05-07T07:39:25.350Z,6.27
2023-05-07T07:41:55.217Z,5.40
2023-05-07T07:44:23.191Z,5.70
2023-05-07T07:46:56.140Z,6.67
2023-05-07T07:49:25.201Z,6.60
2023-05-07T07:51:52.594Z,6.13
2023-05-07T07:54:19.757Z,6.83
2023-05-07T07:56:47.243Z,6.10
2023-05-07T07:59:18.624Z,6.17
2023-05-07T08:01:46.635Z,5.90
2023-05-07T08:04:14.145Z,6.50
2023-05-07T08:06:43.333Z,6.80
2023-05-07T08:09:12.652Z,6.53
2023-05-07T08:11:41.883Z,6.70
2023-05-07T08:14:10.015Z,5.87
2023-05-07T08:16:37.359Z,6.40
2023-05-07T08:19:04.604Z,6.20
2023-05-07T08:21:34.572Z,6.50
2023-05-07T08:24:02.800Z,6.67
2023-05-07T08:26:30.436Z,6.23
2023-05-07T08:28:57.614Z,5.67
2023-05-07T08:31:25.494Z,6.27
2023-05-07T08:33:54.857Z,6.90
2023-05-07T08:36:22.044Z,6.33
2023-05-07T08:38:50.724Z,7.23
2023-05-07T08:41:17.886Z,6.10
2023-05-07T08:43:50.499Z,7.33
2023-05-07T08:46:23.018Z,7.43
2023-05-07T08:48:54.513Z,6.40
2023-05-07T08:51:22.236Z,6.63
2023-05-07T08:53:50.885Z,6.60
2023-05-07T08:56:24.213Z,6.20
2023-05-07T08:58:57.309Z,6.70
2023-05-07T09:01:24.721Z,6.60
2023-05-07T09:03:55.558Z,6.87
2023-05-07T09:06:24.198Z,6.23
2023-05-07T09:08:55.466Z,7.47
2023-05-07T09:11:25.974Z,7.33
2023-05-07T09:14:02.028Z,6.50
2023-05-07T09:16:31.624Z,6.40
2023-05-07T09:19:02.445Z,6.40
2023-05-07T09:21:29.843Z,6.40
2023-05-07T09:23:59.912Z,6.30
2023-05-07T09:26:36.388Z,6.23
2023-05-07T09:29:05.503Z,6.63
2023-05-07T09:31:32.800Z,6.70
2023-05-07T09:34:01.781Z,6.87
2023-05-07T09:36:33.231Z,6.83
2023-05-07T09:39:02.023Z,6.40
2023-05-07T09:41:33.326Z,6.73
2023-05-07T09:44:09.870Z,6.93
2023-05-07T09:46:43.468Z,7.60
2023-05-07T09:49:22.965Z,6.77
2023-05-07T09:51:53.061Z,7.70
2023-05-07T09:54:23.748Z,7.07
2023-05-07T09:56:54.254Z,7.63
2023-05-07T09:59:24.982Z,6.80
2023-05-07T10:01:56.349Z,7.07
2023-05-07T10:04:23.906Z,7.10
2023-05-07T10:06:52.685Z,7.47
2023-05-07T10:09:20.253Z,6.77
2023-05-07T10:11:47.741Z,7.63
2023-05-07T10:14:15.785Z,9.83
2023-05-07T10:16:44.697Z,7.90
2023-05-07T10:19:18.034Z,7.63
2023-05-07T10:22:07.838Z,7.60
2023-05-07T10:24:41.021Z,7.67
2023-05-07T10:27:15.724Z,6.97
2023-05-07T10:30:04.565Z,6.80
2023-05-07T10:32:40.354Z,7.00
2023-05-07T10:35:33.080Z,7.57
2023-05-07T10:38:02.830Z,7.57
2023-05-07T10:40:33.083Z,7.80
2023-05-07T10:43:02.494Z,6.93
2023-05-07T10:45:34.892Z,8.30
2023-05-07T10:50:50.108Z,6.30
2023-05-07T10:53:20.674Z,7.30
2023-05-07T10:56:17.251Z,7.10
2023-05-07T10:58:48.957Z,7.60
2023-05-07T11:01:49.107Z,7.57
2023-05-07T11:04:25.124Z,7.10
2023-05-07T11:07:11.070Z,6.50
2023-05-07T11:09:57.351Z,7.23
2023-05-07T11:12:39.678Z,6.37
2023-05-07T11:15:14.070Z,6.57
2023-05-07T11:17:54.831Z,6.77
2023-05-07T11:20:22.891Z,6.20
2023-05-07T11:22:56.661Z,5.30
2023-05-07T11:25:33.695Z,4.40
2023-05-07T11:28:17.162Z,4.90
2023-05-07T11:30:50.660Z,4.50
2023-05-07T11:33:20.854Z,5.50
2023-05-07T11:35:51.615Z,5.00
2023-05-07T11:38:22.243Z,4.90
2023-05-07T11:40:51.988Z,5.33
2023-05-07T11:43:20.539Z,4.40
2023-05-07T11:45:48.598Z,6.10
2023-05-07T11:48:16.385Z,4.80
2023-05-07T11:50:56.079Z,4.60
2023-05-07T11:53:26.227Z,4.47
2023-05-07T11:55:59.696Z,4.50
2023-05-07T11:58:28.218Z,4.10
2023-05-07T12:00:56.906Z,4.13
2023-05-07T12:03:24.615Z,4.37
2023-05-07T12:05:51.941Z,4.33
2023-05-07T12:08:20.539Z,4.77
2023-05-07T12:10:48.904Z,5.80
2023-05-07T12:13:23.501Z,5.67
2023-05-07T12:15:52.536Z,5.53
2023-05-07T12:18:20.098Z,4.83
2023-05-07T12:20:47.562Z,6.33
2023-05-07T12:23:15.092Z,6.10
2023-05-07T12:25:49.335Z,4.87
2023-05-07T12:28:17.181Z,3.60
2023-05-07T12:30:45.083Z,4.57
2023-05-07T12:33:12.456Z,5.10
2023-05-07T12:35:40.809Z,4.17
2023-05-07T12:38:15.447Z,4.67
2023-05-07T12:40:43.799Z,7.33
2023-05-07T12:43:18.567Z,4.73
2023-05-07T12:45:46.573Z,4.50
2023-05-07T12:48:13.904Z,5.07
2023-05-07T12:50:41.125Z,6.57
2023-05-07T12:53:09.048Z,3.80
2023-05-07T12:55:43.587Z,3.60
2023-05-07T12:58:16.808Z,3.53
2023-05-07T13:00:44.433Z,3.97
2023-05-07T13:03:13.456Z,4.00
2023-05-07T13:05:40.948Z,4.10
2023-05-07T13:08:10.504Z,3.60
2023-05-07T13:10:37.634Z,4.20
2023-05-07T13:13:04.912Z,4.10
2023-05-07T13:15:32.206Z,4.13
2023-05-07T13:17:59.455Z,5.30
2023-05-07T13:20:26.678Z,3.50
2023-05-07T13:22:54.035Z,4.57
2023-05-07T13:25:21.182Z,3.70
2023-05-07T13:27:56.508Z,4.00
2023-05-07T13:30:30.585Z,5.60
2023-05-07T13:32:58.037Z,5.50
2023-05-07T13:35:25.667Z,6.00
2023-05-07T13:37:53.082Z,5.53
2023-05-07T13:40:20.336Z,5.50
2023-05-07T13:42:47.499Z,5.70
2023-05-07T13:45:15.062Z,5.97
2023-05-07T13:47:42.870Z,7.07
2023-05-07T13:50:10.925Z,5.80
2023-05-07T13:52:38.856Z,5.57
2023-05-07T13:55:06.404Z,6.67
2023-05-07T13:57:33.556Z,5.43
2023-05-07T14:00:00.768Z,5.30
2023-05-07T14:02:28.170Z,5.57
2023-05-07T14:04:55.602Z,6.17
2023-05-07T14:07:23.831Z,4.77
2023-05-07T14:09:51.093Z,8.47
2023-05-07T14:12:18.271Z,6.40
2023-05-07T14:14:47.724Z,4.90
2023-05-07T14:17:15.032Z,4.73
2023-05-07T14:19:42.254Z,5.23
2023-05-07T14:22:09.452Z,5.00
2023-05-07T14:24:38.685Z,4.60
2023-05-07T14:27:06.668Z,4.77
2023-05-07T14:29:36.289Z,5.10
2023-05-07T14:32:04.152Z,4.97
2023-05-07T14:34:32.528Z,5.00
2023-05-07T14:36:59.844Z,5.10
2023-05-07T14:39:27.204Z,6.13
2023-05-07T14:41:55.634Z,5.33
2023-05-07T14:44:23.925Z,5.10
2023-05-07T14:46:51.956Z,5.10
2023-05-07T14:49:20.199Z,5.43
2023-05-07T14:51:48.723Z,5.37
2023-05-07T14:54:16.133Z,5.30
2023-05-07T14:56:43.521Z,4.93
2023-05-07T14:59:11.348Z,4.90
2023-05-07T15:01:38.736Z,5.70
2023-05-07T15:04:06.202Z,5.93
2023-05-07T15:06:34.344Z,4.83
2023-05-07T15:09:01.535Z,5.47
2023-05-07T15:11:30.362Z,5.30
2023-05-07T15:13:57.538Z,5.90
2023-05-07T15:16:24.818Z,5.50
2023-05-07T15:18:52.206Z,4.93
2023-05-07T15:21:19.451Z,4.90
2023-05-07T15:23:46.851Z,5.87
2023-05-07T15:26:14.100Z,4.20
2023-05-07T15:28:41.357Z,4.70
2023-05-07T15:31:10.062Z,4.90
2023-05-07T15:33:37.277Z,5.20
2023-05-07T15:36:05.931Z,4.97
2023-05-07T15:38:35.744Z,4.80
2023-05-07T15:41:03.498Z,4.80
2023-05-07T15:43:31.367Z,4.10
2023-05-07T15:45:58.714Z,5.37
2023-05-07T15:48:26.728Z,5.07
2023-05-07T15:50:54.505Z,5.37
2023-05-07T15:53:21.751Z,5.13
2023-05-07T15:55:49.747Z,5.00
2023-05-07T15:58:20.172Z,5.20
2023-05-07T16:00:47.789Z,4.93
2023-05-07T16:03:16.133Z,4.67
2023-05-07T16:05:43.565Z,5.40
2023-05-07T16:08:11.054Z,5.57
2023-05-07T16:10:38.825Z,5.33
2023-05-07T16:13:08.397Z,5.73
2023-05-07T16:15:36.167Z,5.57
2023-05-07T16:18:08.271Z,5.70
2023-05-07T16:20:35.732Z,6.40
2023-05-07T16:23:03.639Z,6.10
2023-05-07T16:25:32.661Z,6.80
2023-05-07T16:27:59.950Z,6.37
2023-05-07T16:30:27.280Z,6.10
2023-05-07T16:32:54.692Z,6.17
2023-05-07T16:35:22.244Z,5.67
2023-05-07T16:37:49.611Z,5.67
2023-05-07T16:40:17.034Z,9.67
2023-05-07T16:42:44.343Z,7.70
2023-05-07T16:45:11.968Z,7.87
2023-05-07T16:47:40.428Z,6.03
2023-05-07T16:50:08.009Z,7.57
2023-05-07T16:52:35.798Z,6.53
2023-05-07T16:55:03.067Z,6.63
2023-05-07T16:57:31.393Z,7.23
2023-05-07T16:59:59.809Z,6.50
2023-05-07T17:02:27.222Z,6.13
2023-05-07T17:04:54.675Z,7.70
2023-05-07T17:07:21.939Z,5.83
2023-05-07T17:09:49.248Z,4.83
2023-05-07T17:12:18.027Z,4.50
2023-05-07T17:14:45.472Z,4.90
2023-05-07T17:17:13.354Z,5.80
2023-05-07T17:19:40.858Z,4.03
2023-05-07T17:22:08.208Z,4.43
2023-05-07T17:24:36.829Z,5.20
2023-05-07T17:27:04.168Z,5.20
2023-05-07T17:29:31.442Z,4.43
2023-05-07T17:31:59.003Z,5.20
2023-05-07T17:34:26.461Z,4.10
2023-05-07T17:36:57.376Z,5.60
2023-05-07T17:39:26.606Z,4.70
2023-05-07T17:41:56.227Z,4.63
2023-05-07T17:44:23.522Z,4.30
2023-05-07T17:46:50.791Z,4.00
2023-05-07T17:49:18.180Z,4.40
2023-05-07T17:51:53.901Z,4.43
2023-05-07T17:54:24.050Z,5.33
2023-05-07T17:56:51.597Z,4.97
2023-05-07T17:59:18.928Z,5.97
2023-05-07T18:01:46.248Z,4.20
2023-05-07T18:04:13.611Z,4.50
2023-05-07T18:06:44.265Z,5.10
2023-05-07T18:09:11.663Z,4.40
2023-05-07T18:11:40.953Z,5.40
2023-05-07T18:14:09.769Z,5.00
2023-05-07T18:16:37.080Z,4.83
2023-05-07T18:19:04.884Z,6.60
2023-05-07T18:21:32.445Z,4.60
2023-05-07T18:23:59.766Z,5.07
2023-05-07T18:26:27.655Z,4.40
2023-05-07T18:28:57.068Z,4.70
2023-05-07T18:31:24.495Z,4.67
2023-05-07T18:33:52.769Z,4.50
2023-05-07T18:36:20.123Z,4.60
2023-05-07T18:38:47.403Z,5.23
2023-05-07T18:41:14.678Z,4.03
2023-05-07T18:43:41.949Z,4.07
2023-05-07T18:46:09.312Z,5.10
2023-05-07T18:48:36.607Z,4.20
2023-05-07T18:51:04.135Z,4.60
2023-05-07T18:53:31.532Z,4.60
2023-05-07T18:56:00.128Z,5.90
2023-05-07T18:58:27.462Z,5.20
2023-05-07T19:00:55.257Z,5.40
2023-05-07T19:03:22.617Z,5.93
2023-05-07T19:05:49.892Z,6.00
2023-05-07T19:08:17.140Z,6.90
2023-05-07T19:10:45.025Z,6.20
2023-05-07T19:13:14.118Z,9.27
2023-05-07T19:15:43.571Z,5.87
2023-05-07T19:18:11.342Z,5.20
2023-05-07T19:20:38.617Z,7.07
2023-05-07T19:23:09.212Z,5.57
2023-05-07T19:25:36.605Z,5.13
2023-05-07T19:28:03.904Z,5.93
2023-05-07T19:30:32.624Z,5.77
2023-05-07T19:33:03.370Z,5.20
2023-05-07T19:35:31.361Z,5.60
2023-05-07T19:37:58.640Z,5.70
2023-05-07T19:40:26.107Z,5.50
2023-05-07T19:42:53.422Z,5.60
2023-05-07T19:45:22.061Z,5.30
2023-05-07T19:47:49.468Z,4.83
2023-05-07T19:50:16.785Z,5.70
2023-05-07T19:52:45.508Z,5.60
2023-05-07T19:55:13.238Z,5.30
2023-05-07T19:57:40.794Z,5.13
2023-05-07T20:00:08.480Z,5.13
2023-05-07T20:02:41.516Z,5.87
2023-05-07T20:05:11.113Z,6.00
2023-05-07T20:07:38.637Z,5.37
2023-05-07T20:10:06.275Z,5.80
2023-05-07T20:12:33.555Z,6.10
2023-05-07T20:15:02.931Z,5.60
2023-05-07T20:17:32.452Z,6.03
2023-05-07T20:19:59.761Z,6.43
2023-05-07T20:22:30.262Z,6.17
2023-05-07T20:24:57.418Z,5.70
2023-05-07T20:27:25.867Z,6.53
2023-05-07T20:29:53.841Z,5.60
2023-05-07T20:32:21.114Z,6.17
2023-05-07T20:34:49.357Z,5.97
2023-05-07T20:37:16.764Z,5.90
2023-05-07T20:39:44.237Z,5.50
2023-05-07T20:42:11.427Z,6.63
2023-05-07T20:44:39.116Z,6.40
2023-05-07T20:47:06.482Z,6.80
2023-05-07T20:49:33.639Z,7.43
2023-05-07T20:52:00.989Z,7.77
2023-05-07T20:54:28.264Z,8.00
2023-05-07T20:56:56.824Z,8.10
2023-05-07T20:59:24.128Z,6.53
2023-05-07T21:01:51.353Z,6.60
2023-05-07T21:04:18.905Z,6.00
2023-05-07T21:06:46.145Z,5.83
2023-05-07T21:09:13.370Z,6.80
2023-05-07T21:11:40.581Z,6.53
2023-05-07T21:14:07.764Z,6.60
2023-05-07T21:16:36.433Z,6.80
2023-05-07T21:19:03.770Z,7.27
2023-05-07T21:21:31.239Z,8.00
2023-05-07T21:23:58.663Z,7.50
2023-05-07T21:26:26.165Z,9.00
2023-05-07T21:28:53.556Z,7.50
2023-05-07T21:31:20.922Z,8.87
2023-05-07T21:33:48.136Z,8.07
2023-05-07T21:36:18.071Z,8.53
2023-05-07T21:38:45.493Z,8.33
2023-05-07T21:41:12.925Z,8.07
2023-05-07T21:43:40.207Z,8.40
2023-05-07T21:46:10.576Z,8.40
2023-05-07T21:48:37.861Z,9.20
2023-05-07T21:51:08.399Z,9.60
2023-05-07T21:53:36.183Z,10.00
2023-05-07T21:56:05.169Z,9.23
2023-05-07T21:58:32.627Z,9.30
2023-05-07T22:01:01.191Z,9.93
2023-05-07T22:03:30.837Z,9.10
2023-05-07T22:05:58.060Z,10.13
2023-05-07T22:08:26.026Z,10.13
2023-05-07T22:10:53.248Z,10.93
2023-05-07T22:13:20.663Z,10.60
2023-05-07T22:15:56.634Z,10.50
2023-05-07T22:18:25.575Z,10.67
2023-05-07T22:20:53.049Z,11.30
2023-05-07T22:23:21.965Z,10.83
2023-05-07T22:25:49.117Z,11.10
2023-05-07T22:28:17.340Z,11.03
2023-05-07T22:30:44.568Z,10.90
2023-05-07T22:33:11.685Z,11.40
2023-05-07T22:35:39.196Z,11.30
2023-05-07T22:38:06.359Z,11.23
2023-05-07T22:40:34.775Z,11.20
2023-05-07T22:43:01.916Z,11.30
2023-05-07T22:45:29.141Z,11.10
2023-05-07T22:47:56.370Z,11.53
2023-05-07T22:50:23.607Z,10.70
2023-05-07T22:52:51.790Z,11.20
2023-05-07T22:55:18.965Z,11.50
2023-05-07T22:57:46.116Z,11.17
2023-05-07T23:00:13.697Z,10.50
2023-05-07T23:02:41.821Z,10.60
2023-05-07T23:05:09.322Z,10.70
2023-05-07T23:07:37.887Z,11.87
2023-05-07T23:10:05.884Z,10.57
2023-05-07T23:12:33.640Z,10.57
2023-05-07T23:15:01.680Z,10.83
2023-05-07T23:17:29.587Z,11.60
2023-05-07T23:19:57.186Z,11.93
2023-05-07T23:22:25.345Z,10.90
2023-05-07T23:24:52.791Z,12.00
2023-05-07T23:27:20.121Z,10.97
2023-05-07T23:29:47.343Z,11.37
2023-05-07T23:32:15.894Z,12.40
2023-05-07T23:34:43.330Z,10.20
2023-05-07T23:37:10.977Z,11.00
2023-05-07T23:39:38.116Z,10.10
2023-05-07T23:42:06.837Z,10.80
2023-05-07T23:44:34.421Z,17.93
2023-05-07T23:47:02.378Z,11.40
2023-05-07T23:49:29.778Z,13.30
2023-05-07T23:51:56.918Z,11.80
2023-05-07T23:54:24.275Z,10.97
2023-05-07T23:56:51.922Z,10.87
2023-05-07T23:59:19.100Z,11.43
